sensor_id;sensor_type;location;lat;lon;timestamp;P1;durP1;ratioP1;P2;durP2;ratioP2
72791;SDS011;60907;53.268;8.764;2022-10-16T00:01:56;6.03;;;2.05;;
72791;SDS011;60907;53.268;8.764;2022-10-16T00:04:21;3.78;;;1.88;;
72791;SDS011;60907;53.268;8.764;2022-10-16T00:06:47;4.03;;;2.15;;
72791;SDS011;60907;53.268;8.764;2022-10-16T00:09:13;3.70;;;1.77;;
72791;SDS011;60907;53.268;8.764;2022-10-16T00:11:39;3.35;;;1.85;;
72791;SDS011;60907;53.268;8.764;2022-10-16T00:14:06;4.78;;;1.98;;
72791;SDS011;60907;53.268;8.764;2022-10-16T00:16:34;3.83;;;1.30;;
72791;SDS011;60907;53.268;8.764;2022-10-16T00:18:59;2.90;;;1.67;;
72791;SDS011;60907;53.268;8.764;2022-10-16T00:21:26;3.65;;;1.80;;
72791;SDS011;60907;53.268;8.764;2022-10-16T00:24:01;2.40;;;1.25;;
72791;SDS011;60907;53.268;8.764;2022-10-16T00:26:32;4.60;;;1.42;;
72791;SDS011;60907;53.268;8.764;2022-10-16T00:28:59;6.03;;;1.73;;
72791;SDS011;60907;53.268;8.764;2022-10-16T00:31:24;4.60;;;1.35;;
72791;SDS011;60907;53.268;8.764;2022-10-16T00:33:50;9.52;;;1.88;;
72791;SDS011;60907;53.268;8.764;2022-10-16T00:36:17;2.83;;;1.35;;
72791;SDS011;60907;53.268;8.764;2022-10-16T00:38:44;1.73;;;1.25;;
72791;SDS011;60907;53.268;8.764;2022-10-16T00:41:14;2.90;;;1.33;;
72791;SDS011;60907;53.268;8.764;2022-10-16T00:43:42;3.63;;;1.25;;
72791;SDS011;60907;53.268;8.764;2022-10-16T00:46:16;2.63;;;1.20;;
72791;SDS011;60907;53.268;8.764;2022-10-16T00:48:48;4.20;;;1.55;;
72791;SDS011;60907;53.268;8.764;2022-10-16T00:51:17;4.15;;;1.20;;
72791;SDS011;60907;53.268;8.764;2022-10-16T00:53:44;7.05;;;1.60;;
72791;SDS011;60907;53.268;8.764;2022-10-16T00:56:10;4.70;;;1.52;;
72791;SDS011;60907;53.268;8.764;2022-10-16T00:58:36;2.97;;;1.38;;
72791;SDS011;60907;53.268;8.764;2022-10-16T01:01:01;4.63;;;1.63;;
72791;SDS011;60907;53.268;8.764;2022-10-16T01:03:31;3.08;;;1.40;;
72791;SDS011;60907;53.268;8.764;2022-10-16T01:08:44;2.30;;;1.30;;
72791;SDS011;60907;53.268;8.764;2022-10-16T01:11:25;2.88;;;1.20;;
72791;SDS011;60907;53.268;8.764;2022-10-16T01:13:55;2.85;;;1.10;;
72791;SDS011;60907;53.268;8.764;2022-10-16T01:16:46;2.40;;;1.00;;
72791;SDS011;60907;53.268;8.764;2022-10-16T01:19:16;2.13;;;1.10;;
72791;SDS011;60907;53.268;8.764;2022-10-16T01:21:46;4.55;;;1.10;;
72791;SDS011;60907;53.268;8.764;2022-10-16T01:27:12;2.30;;;1.15;;
72791;SDS011;60907;53.268;8.764;2022-10-16T01:32:09;2.38;;;1.13;;
72791;SDS011;60907;53.268;8.764;2022-10-16T01:34:42;2.75;;;1.27;;
72791;SDS011;60907;53.268;8.764;2022-10-16T01:37:20;3.67;;;1.35;;
72791;SDS011;60907;53.268;8.764;2022-10-16T01:39:50;3.20;;;1.40;;
72791;SDS011;60907;53.268;8.764;2022-10-16T01:42:23;4.60;;;1.15;;
72791;SDS011;60907;53.268;8.764;2022-10-16T01:44:53;4.07;;;1.20;;
72791;SDS011;60907;53.268;8.764;2022-10-16T01:47:21;4.03;;;1.75;;
72791;SDS011;60907;53.268;8.764;2022-10-16T01:49:48;2.00;;;1.50;;
72791;SDS011;60907;53.268;8.764;2022-10-16T01:52:15;4.85;;;1.17;;
72791;SDS011;60907;53.268;8.764;2022-10-16T01:54:43;2.97;;;1.20;;
72791;SDS011;60907;53.268;8.764;2022-10-16T01:57:11;3.58;;;1.30;;
72791;SDS011;60907;53.268;8.764;2022-10-16T01:59:39;3.30;;;0.93;;
72791;SDS011;60907;53.268;8.764;2022-10-16T02:02:07;3.03;;;1.15;;
72791;SDS011;60907;53.268;8.764;2022-10-16T02:04:39;2.35;;;1.05;;
72791;SDS011;60907;53.268;8.764;2022-10-16T02:07:08;2.85;;;1.35;;
72791;SDS011;60907;53.268;8.764;2022-10-16T02:09:34;4.53;;;1.30;;
72791;SDS011;60907;53.268;8.764;2022-10-16T02:12:00;1.55;;;0.95;;
72791;SDS011;60907;53.268;8.764;2022-10-16T02:14:30;2.35;;;1.05;;
72791;SDS011;60907;53.268;8.764;2022-10-16T02:16:56;6.38;;;1.35;;
72791;SDS011;60907;53.268;8.764;2022-10-16T02:19:21;3.28;;;1.40;;
72791;SDS011;60907;53.268;8.764;2022-10-16T02:21:51;5.10;;;1.20;;
72791;SDS011;60907;53.268;8.764;2022-10-16T02:27:33;4.22;;;1.10;;
72791;SDS011;60907;53.268;8.764;2022-10-16T02:30:05;5.25;;;1.27;;
72791;SDS011;60907;53.268;8.764;2022-10-16T02:32:33;3.00;;;1.15;;
72791;SDS011;60907;53.268;8.764;2022-10-16T02:34:59;3.80;;;1.33;;
72791;SDS011;60907;53.268;8.764;2022-10-16T02:37:25;2.85;;;1.27;;
72791;SDS011;60907;53.268;8.764;2022-10-16T02:39:51;2.13;;;1.02;;
72791;SDS011;60907;53.268;8.764;2022-10-16T02:42:17;1.90;;;1.25;;
72791;SDS011;60907;53.268;8.764;2022-10-16T02:44:43;4.57;;;1.00;;
72791;SDS011;60907;53.268;8.764;2022-10-16T02:47:09;2.45;;;0.93;;
72791;SDS011;60907;53.268;8.764;2022-10-16T02:49:34;3.88;;;1.00;;
72791;SDS011;60907;53.268;8.764;2022-10-16T02:51:59;1.83;;;1.00;;
72791;SDS011;60907;53.268;8.764;2022-10-16T02:54:25;2.07;;;1.20;;
72791;SDS011;60907;53.268;8.764;2022-10-16T02:56:50;3.60;;;1.10;;
72791;SDS011;60907;53.268;8.764;2022-10-16T02:59:16;1.67;;;0.82;;
72791;SDS011;60907;53.268;8.764;2022-10-16T03:01:42;6.22;;;1.13;;
72791;SDS011;60907;53.268;8.764;2022-10-16T03:04:07;3.13;;;0.97;;
72791;SDS011;60907;53.268;8.764;2022-10-16T03:06:33;3.17;;;1.00;;
72791;SDS011;60907;53.268;8.764;2022-10-16T03:08:59;2.60;;;0.75;;
72791;SDS011;60907;53.268;8.764;2022-10-16T03:11:24;1.58;;;0.90;;
72791;SDS011;60907;53.268;8.764;2022-10-16T03:13:51;2.33;;;0.98;;
72791;SDS011;60907;53.268;8.764;2022-10-16T03:16:16;4.63;;;1.17;;
72791;SDS011;60907;53.268;8.764;2022-10-16T03:18:42;4.10;;;0.90;;
72791;SDS011;60907;53.268;8.764;2022-10-16T03:21:07;3.33;;;1.10;;
72791;SDS011;60907;53.268;8.764;2022-10-16T03:23:33;5.30;;;1.50;;
72791;SDS011;60907;53.268;8.764;2022-10-16T03:25:58;3.13;;;0.90;;
72791;SDS011;60907;53.268;8.764;2022-10-16T03:28:24;2.22;;;1.05;;
72791;SDS011;60907;53.268;8.764;2022-10-16T03:30:49;4.25;;;1.17;;
72791;SDS011;60907;53.268;8.764;2022-10-16T03:33:15;5.85;;;1.10;;
72791;SDS011;60907;53.268;8.764;2022-10-16T03:35:40;2.53;;;1.03;;
72791;SDS011;60907;53.268;8.764;2022-10-16T03:38:05;4.27;;;1.60;;
72791;SDS011;60907;53.268;8.764;2022-10-16T03:40:31;4.20;;;1.00;;
72791;SDS011;60907;53.268;8.764;2022-10-16T03:42:57;1.60;;;0.93;;
72791;SDS011;60907;53.268;8.764;2022-10-16T03:45:23;2.22;;;0.95;;
72791;SDS011;60907;53.268;8.764;2022-10-16T03:47:49;3.92;;;1.42;;
72791;SDS011;60907;53.268;8.764;2022-10-16T03:50:14;4.43;;;1.30;;
72791;SDS011;60907;53.268;8.764;2022-10-16T03:52:39;3.92;;;1.20;;
72791;SDS011;60907;53.268;8.764;2022-10-16T03:55:05;7.05;;;1.20;;
72791;SDS011;60907;53.268;8.764;2022-10-16T03:57:31;4.72;;;1.50;;
72791;SDS011;60907;53.268;8.764;2022-10-16T03:59:56;4.78;;;2.05;;
72791;SDS011;60907;53.268;8.764;2022-10-16T04:02:22;2.75;;;1.40;;
72791;SDS011;60907;53.268;8.764;2022-10-16T04:04:47;2.65;;;1.13;;
72791;SDS011;60907;53.268;8.764;2022-10-16T04:07:13;4.10;;;1.83;;
72791;SDS011;60907;53.268;8.764;2022-10-16T04:09:38;5.05;;;1.48;;
72791;SDS011;60907;53.268;8.764;2022-10-16T04:12:03;4.47;;;1.85;;
72791;SDS011;60907;53.268;8.764;2022-10-16T04:14:29;3.53;;;1.90;;
72791;SDS011;60907;53.268;8.764;2022-10-16T04:16:54;4.13;;;1.50;;
72791;SDS011;60907;53.268;8.764;2022-10-16T04:19:19;3.93;;;2.00;;
72791;SDS011;60907;53.268;8.764;2022-10-16T04:21:45;4.90;;;1.80;;
72791;SDS011;60907;53.268;8.764;2022-10-16T04:24:10;4.10;;;2.00;;
72791;SDS011;60907;53.268;8.764;2022-10-16T04:26:36;6.30;;;2.17;;
72791;SDS011;60907;53.268;8.764;2022-10-16T04:29:02;5.25;;;2.05;;
72791;SDS011;60907;53.268;8.764;2022-10-16T04:31:27;3.88;;;2.17;;
72791;SDS011;60907;53.268;8.764;2022-10-16T04:33:53;6.18;;;2.20;;
72791;SDS011;60907;53.268;8.764;2022-10-16T04:36:18;5.33;;;2.60;;
72791;SDS011;60907;53.268;8.764;2022-10-16T04:38:43;5.80;;;2.90;;
72791;SDS011;60907;53.268;8.764;2022-10-16T04:41:09;4.90;;;2.10;;
72791;SDS011;60907;53.268;8.764;2022-10-16T04:43:34;6.03;;;2.43;;
72791;SDS011;60907;53.268;8.764;2022-10-16T04:46:00;9.27;;;3.08;;
72791;SDS011;60907;53.268;8.764;2022-10-16T04:48:26;4.65;;;2.33;;
72791;SDS011;60907;53.268;8.764;2022-10-16T04:50:52;4.53;;;2.25;;
72791;SDS011;60907;53.268;8.764;2022-10-16T04:53:17;5.93;;;2.80;;
72791;SDS011;60907;53.268;8.764;2022-10-16T04:55:43;6.82;;;2.90;;
72791;SDS011;60907;53.268;8.764;2022-10-16T04:58:08;5.72;;;3.13;;
72791;SDS011;60907;53.268;8.764;2022-10-16T05:00:34;6.75;;;3.00;;
72791;SDS011;60907;53.268;8.764;2022-10-16T05:03:00;5.68;;;2.92;;
72791;SDS011;60907;53.268;8.764;2022-10-16T05:05:26;5.00;;;2.83;;
72791;SDS011;60907;53.268;8.764;2022-10-16T05:07:52;5.13;;;2.85;;
72791;SDS011;60907;53.268;8.764;2022-10-16T05:10:18;6.45;;;3.25;;
72791;SDS011;60907;53.268;8.764;2022-10-16T05:12:43;5.47;;;2.78;;
72791;SDS011;60907;53.268;8.764;2022-10-16T05:15:09;6.63;;;2.80;;
72791;SDS011;60907;53.268;8.764;2022-10-16T05:17:35;7.88;;;3.70;;
72791;SDS011;60907;53.268;8.764;2022-10-16T05:20:00;10.05;;;3.38;;
72791;SDS011;60907;53.268;8.764;2022-10-16T05:22:25;5.40;;;3.00;;
72791;SDS011;60907;53.268;8.764;2022-10-16T05:24:51;7.87;;;3.17;;
72791;SDS011;60907;53.268;8.764;2022-10-16T05:27:16;7.47;;;3.50;;
72791;SDS011;60907;53.268;8.764;2022-10-16T05:29:48;9.35;;;3.80;;
72791;SDS011;60907;53.268;8.764;2022-10-16T05:32:14;9.05;;;3.45;;
72791;SDS011;60907;53.268;8.764;2022-10-16T05:34:40;7.40;;;3.55;;
72791;SDS011;60907;53.268;8.764;2022-10-16T05:37:05;8.85;;;3.70;;
72791;SDS011;60907;53.268;8.764;2022-10-16T05:39:30;9.00;;;4.30;;
72791;SDS011;60907;53.268;8.764;2022-10-16T05:41:56;9.13;;;3.88;;
72791;SDS011;60907;53.268;8.764;2022-10-16T05:44:21;7.40;;;4.17;;
72791;SDS011;60907;53.268;8.764;2022-10-16T05:46:47;8.63;;;4.87;;
72791;SDS011;60907;53.268;8.764;2022-10-16T05:49:12;8.30;;;4.78;;
72791;SDS011;60907;53.268;8.764;2022-10-16T05:51:38;10.38;;;4.85;;
72791;SDS011;60907;53.268;8.764;2022-10-16T05:54:03;9.57;;;5.57;;
72791;SDS011;60907;53.268;8.764;2022-10-16T05:56:28;9.97;;;4.97;;
72791;SDS011;60907;53.268;8.764;2022-10-16T05:58:54;10.57;;;5.63;;
72791;SDS011;60907;53.268;8.764;2022-10-16T06:01:19;10.20;;;5.60;;
72791;SDS011;60907;53.268;8.764;2022-10-16T06:03:49;10.00;;;5.00;;
72791;SDS011;60907;53.268;8.764;2022-10-16T06:06:20;10.52;;;5.75;;
72791;SDS011;60907;53.268;8.764;2022-10-16T06:08:47;14.60;;;5.82;;
72791;SDS011;60907;53.268;8.764;2022-10-16T06:11:18;9.75;;;5.50;;
72791;SDS011;60907;53.268;8.764;2022-10-16T06:13:48;11.48;;;5.68;;
72791;SDS011;60907;53.268;8.764;2022-10-16T06:16:17;13.07;;;6.38;;
72791;SDS011;60907;53.268;8.764;2022-10-16T06:18:43;8.93;;;5.50;;
72791;SDS011;60907;53.268;8.764;2022-10-16T06:21:09;10.48;;;6.30;;
72791;SDS011;60907;53.268;8.764;2022-10-16T06:23:36;9.65;;;5.97;;
72791;SDS011;60907;53.268;8.764;2022-10-16T06:26:06;11.30;;;6.50;;
72791;SDS011;60907;53.268;8.764;2022-10-16T06:28:33;11.95;;;5.65;;
72791;SDS011;60907;53.268;8.764;2022-10-16T06:30:59;11.45;;;5.55;;
72791;SDS011;60907;53.268;8.764;2022-10-16T06:33:25;10.13;;;5.82;;
72791;SDS011;60907;53.268;8.764;2022-10-16T06:35:50;13.90;;;6.68;;
72791;SDS011;60907;53.268;8.764;2022-10-16T06:38:16;14.93;;;6.07;;
72791;SDS011;60907;53.268;8.764;2022-10-16T06:40:41;13.40;;;5.93;;
72791;SDS011;60907;53.268;8.764;2022-10-16T06:43:07;12.30;;;6.80;;
72791;SDS011;60907;53.268;8.764;2022-10-16T06:45:32;10.47;;;5.70;;
72791;SDS011;60907;53.268;8.764;2022-10-16T06:47:57;14.80;;;6.40;;
72791;SDS011;60907;53.268;8.764;2022-10-16T06:50:23;12.17;;;5.93;;
72791;SDS011;60907;53.268;8.764;2022-10-16T06:52:48;11.60;;;5.55;;
72791;SDS011;60907;53.268;8.764;2022-10-16T06:55:14;10.98;;;5.80;;
72791;SDS011;60907;53.268;8.764;2022-10-16T06:57:40;11.20;;;5.90;;
72791;SDS011;60907;53.268;8.764;2022-10-16T07:00:05;11.73;;;5.75;;
72791;SDS011;60907;53.268;8.764;2022-10-16T07:02:31;11.15;;;5.97;;
72791;SDS011;60907;53.268;8.764;2022-10-16T07:04:56;13.73;;;5.95;;
72791;SDS011;60907;53.268;8.764;2022-10-16T07:07:22;13.73;;;6.55;;
72791;SDS011;60907;53.268;8.764;2022-10-16T07:09:49;10.50;;;6.32;;
72791;SDS011;60907;53.268;8.764;2022-10-16T07:12:15;9.68;;;5.80;;
72791;SDS011;60907;53.268;8.764;2022-10-16T07:14:40;11.10;;;5.72;;
72791;SDS011;60907;53.268;8.764;2022-10-16T07:17:05;11.83;;;6.13;;
72791;SDS011;60907;53.268;8.764;2022-10-16T07:19:31;9.25;;;5.80;;
72791;SDS011;60907;53.268;8.764;2022-10-16T07:21:56;9.05;;;5.10;;
72791;SDS011;60907;53.268;8.764;2022-10-16T07:24:22;13.50;;;5.75;;
72791;SDS011;60907;53.268;8.764;2022-10-16T07:26:47;8.77;;;5.22;;
72791;SDS011;60907;53.268;8.764;2022-10-16T07:29:14;12.20;;;5.72;;
72791;SDS011;60907;53.268;8.764;2022-10-16T07:31:41;11.43;;;5.22;;
72791;SDS011;60907;53.268;8.764;2022-10-16T07:34:10;12.02;;;5.70;;
72791;SDS011;60907;53.268;8.764;2022-10-16T07:36:36;9.40;;;5.15;;
72791;SDS011;60907;53.268;8.764;2022-10-16T07:39:02;9.40;;;5.53;;
72791;SDS011;60907;53.268;8.764;2022-10-16T07:41:28;8.18;;;4.50;;
72791;SDS011;60907;53.268;8.764;2022-10-16T07:43:53;9.13;;;5.00;;
72791;SDS011;60907;53.268;8.764;2022-10-16T07:46:20;10.43;;;5.35;;
72791;SDS011;60907;53.268;8.764;2022-10-16T07:48:47;14.68;;;5.32;;
72791;SDS011;60907;53.268;8.764;2022-10-16T07:51:17;9.65;;;5.28;;
72791;SDS011;60907;53.268;8.764;2022-10-16T07:53:43;9.85;;;4.93;;
72791;SDS011;60907;53.268;8.764;2022-10-16T07:56:09;9.88;;;5.28;;
72791;SDS011;60907;53.268;8.764;2022-10-16T07:58:35;7.78;;;4.43;;
72791;SDS011;60907;53.268;8.764;2022-10-16T08:01:12;8.32;;;4.93;;
72791;SDS011;60907;53.268;8.764;2022-10-16T08:03:57;8.50;;;5.07;;
72791;SDS011;60907;53.268;8.764;2022-10-16T08:06:23;9.02;;;5.05;;
72791;SDS011;60907;53.268;8.764;2022-10-16T08:08:48;9.00;;;4.47;;
72791;SDS011;60907;53.268;8.764;2022-10-16T08:11:14;6.78;;;4.15;;
72791;SDS011;60907;53.268;8.764;2022-10-16T08:13:40;6.38;;;4.25;;
72791;SDS011;60907;53.268;8.764;2022-10-16T08:16:06;7.80;;;4.30;;
72791;SDS011;60907;53.268;8.764;2022-10-16T08:18:33;6.90;;;4.00;;
72791;SDS011;60907;53.268;8.764;2022-10-16T08:21:00;6.90;;;4.45;;
72791;SDS011;60907;53.268;8.764;2022-10-16T08:23:26;9.90;;;3.75;;
72791;SDS011;60907;53.268;8.764;2022-10-16T08:25:53;6.18;;;3.05;;
72791;SDS011;60907;53.268;8.764;2022-10-16T08:28:19;6.47;;;3.58;;
72791;SDS011;60907;53.268;8.764;2022-10-16T08:30:44;5.07;;;3.05;;
72791;SDS011;60907;53.268;8.764;2022-10-16T08:33:10;6.07;;;3.60;;
72791;SDS011;60907;53.268;8.764;2022-10-16T08:35:35;5.80;;;3.22;;
72791;SDS011;60907;53.268;8.764;2022-10-16T08:38:02;5.20;;;3.22;;
72791;SDS011;60907;53.268;8.764;2022-10-16T08:40:29;5.97;;;2.72;;
72791;SDS011;60907;53.268;8.764;2022-10-16T08:48:54;6.47;;;2.78;;
72791;SDS011;60907;53.268;8.764;2022-10-16T08:51:22;5.50;;;2.33;;
72791;SDS011;60907;53.268;8.764;2022-10-16T08:53:51;3.97;;;2.53;;
72791;SDS011;60907;53.268;8.764;2022-10-16T08:56:19;6.03;;;2.45;;
72791;SDS011;60907;53.268;8.764;2022-10-16T08:58:45;4.88;;;2.33;;
72791;SDS011;60907;53.268;8.764;2022-10-16T09:01:13;5.85;;;2.78;;
72791;SDS011;60907;53.268;8.764;2022-10-16T09:03:47;5.97;;;2.60;;
72791;SDS011;60907;53.268;8.764;2022-10-16T09:11:58;3.42;;;2.00;;
72791;SDS011;60907;53.268;8.764;2022-10-16T09:14:40;4.20;;;1.90;;
72791;SDS011;60907;53.268;8.764;2022-10-16T09:17:17;4.13;;;1.95;;
72791;SDS011;60907;53.268;8.764;2022-10-16T09:22:53;4.43;;;1.27;;
72791;SDS011;60907;53.268;8.764;2022-10-16T09:25:25;2.90;;;1.42;;
72791;SDS011;60907;53.268;8.764;2022-10-16T09:27:52;4.03;;;1.20;;
72791;SDS011;60907;53.268;8.764;2022-10-16T09:30:19;6.82;;;1.42;;
72791;SDS011;60907;53.268;8.764;2022-10-16T09:32:47;3.70;;;1.15;;
72791;SDS011;60907;53.268;8.764;2022-10-16T09:35:16;4.50;;;1.20;;
72791;SDS011;60907;53.268;8.764;2022-10-16T09:37:45;4.47;;;0.88;;
72791;SDS011;60907;53.268;8.764;2022-10-16T09:42:56;4.88;;;1.10;;
72791;SDS011;60907;53.268;8.764;2022-10-16T09:45:26;3.97;;;1.10;;
72791;SDS011;60907;53.268;8.764;2022-10-16T09:47:51;3.30;;;0.68;;
72791;SDS011;60907;53.268;8.764;2022-10-16T09:50:22;4.10;;;1.20;;
72791;SDS011;60907;53.268;8.764;2022-10-16T09:53:02;4.35;;;0.98;;
72791;SDS011;60907;53.268;8.764;2022-10-16T09:55:30;7.05;;;1.45;;
72791;SDS011;60907;53.268;8.764;2022-10-16T09:57:56;4.00;;;1.00;;
72791;SDS011;60907;53.268;8.764;2022-10-16T10:00:22;4.77;;;1.37;;
72791;SDS011;60907;53.268;8.764;2022-10-16T10:05:17;4.07;;;0.90;;
72791;SDS011;60907;53.268;8.764;2022-10-16T10:07:46;4.90;;;0.95;;
72791;SDS011;60907;53.268;8.764;2022-10-16T10:10:22;3.42;;;0.98;;
72791;SDS011;60907;53.268;8.764;2022-10-16T10:12:48;4.38;;;0.90;;
72791;SDS011;60907;53.268;8.764;2022-10-16T10:15:14;5.90;;;1.05;;
72791;SDS011;60907;53.268;8.764;2022-10-16T10:17:56;2.33;;;0.68;;
72791;SDS011;60907;53.268;8.764;2022-10-16T10:22:48;4.60;;;0.70;;
72791;SDS011;60907;53.268;8.764;2022-10-16T10:42:25;1.58;;;0.45;;
72791;SDS011;60907;53.268;8.764;2022-10-16T10:44:57;2.47;;;0.70;;
72791;SDS011;60907;53.268;8.764;2022-10-16T10:58:36;3.15;;;0.55;;
72791;SDS011;60907;53.268;8.764;2022-10-16T11:01:22;4.63;;;0.82;;
72791;SDS011;60907;53.268;8.764;2022-10-16T11:06:45;4.70;;;0.50;;
72791;SDS011;60907;53.268;8.764;2022-10-16T11:09:21;3.13;;;0.70;;
72791;SDS011;60907;53.268;8.764;2022-10-16T11:11:54;1.23;;;0.40;;
72791;SDS011;60907;53.268;8.764;2022-10-16T11:16:54;2.42;;;0.55;;
72791;SDS011;60907;53.268;8.764;2022-10-16T11:22:48;4.13;;;0.60;;
72791;SDS011;60907;53.268;8.764;2022-10-16T11:25:24;1.20;;;0.30;;
72791;SDS011;60907;53.268;8.764;2022-10-16T11:30:27;3.63;;;0.80;;
72791;SDS011;60907;53.268;8.764;2022-10-16T11:38:15;4.93;;;0.70;;
72791;SDS011;60907;53.268;8.764;2022-10-16T11:40:47;5.75;;;0.80;;
72791;SDS011;60907;53.268;8.764;2022-10-16T11:43:15;3.00;;;0.60;;
72791;SDS011;60907;53.268;8.764;2022-10-16T11:45:49;3.35;;;0.60;;
72791;SDS011;60907;53.268;8.764;2022-10-16T11:48:31;2.75;;;0.45;;
72791;SDS011;60907;53.268;8.764;2022-10-16T11:51:07;1.40;;;0.40;;
72791;SDS011;60907;53.268;8.764;2022-10-16T11:53:46;3.13;;;0.50;;
72791;SDS011;60907;53.268;8.764;2022-10-16T11:56:25;4.40;;;0.50;;
72791;SDS011;60907;53.268;8.764;2022-10-16T12:01:19;3.45;;;0.43;;
72791;SDS011;60907;53.268;8.764;2022-10-16T12:04:02;0.75;;;0.30;;
72791;SDS011;60907;53.268;8.764;2022-10-16T12:06:40;3.50;;;0.63;;
72791;SDS011;60907;53.268;8.764;2022-10-16T12:09:27;3.55;;;0.70;;
72791;SDS011;60907;53.268;8.764;2022-10-16T12:11:54;1.98;;;0.52;;
72791;SDS011;60907;53.268;8.764;2022-10-16T12:14:21;1.90;;;0.30;;
72791;SDS011;60907;53.268;8.764;2022-10-16T12:17:02;3.13;;;0.82;;
72791;SDS011;60907;53.268;8.764;2022-10-16T12:19:56;1.77;;;0.55;;
72791;SDS011;60907;53.268;8.764;2022-10-16T12:22:27;6.20;;;0.82;;
72791;SDS011;60907;53.268;8.764;2022-10-16T12:24:54;2.55;;;0.50;;
72791;SDS011;60907;53.268;8.764;2022-10-16T12:27:29;4.20;;;0.57;;
72791;SDS011;60907;53.268;8.764;2022-10-16T12:30:03;2.35;;;0.40;;
72791;SDS011;60907;53.268;8.764;2022-10-16T12:35:01;4.18;;;0.80;;
72791;SDS011;60907;53.268;8.764;2022-10-16T12:37:31;1.73;;;0.40;;
72791;SDS011;60907;53.268;8.764;2022-10-16T12:39:59;3.05;;;0.73;;
72791;SDS011;60907;53.268;8.764;2022-10-16T12:42:37;5.45;;;0.60;;
72791;SDS011;60907;53.268;8.764;2022-10-16T12:45:21;4.93;;;0.93;;
72791;SDS011;60907;53.268;8.764;2022-10-16T12:47:53;2.60;;;0.65;;
72791;SDS011;60907;53.268;8.764;2022-10-16T12:50:26;3.55;;;0.55;;
72791;SDS011;60907;53.268;8.764;2022-10-16T12:52:56;5.95;;;0.70;;
72791;SDS011;60907;53.268;8.764;2022-10-16T12:55:22;1.95;;;0.60;;
72791;SDS011;60907;53.268;8.764;2022-10-16T12:58:06;2.45;;;0.60;;
72791;SDS011;60907;53.268;8.764;2022-10-16T13:00:49;6.65;;;0.70;;
72791;SDS011;60907;53.268;8.764;2022-10-16T13:06:17;4.57;;;0.73;;
72791;SDS011;60907;53.268;8.764;2022-10-16T13:16:52;2.97;;;0.40;;
72791;SDS011;60907;53.268;8.764;2022-10-16T13:19:37;2.13;;;0.40;;
72791;SDS011;60907;53.268;8.764;2022-10-16T13:22:21;3.13;;;0.50;;
72791;SDS011;60907;53.268;8.764;2022-10-16T13:24:56;1.67;;;0.30;;
72791;SDS011;60907;53.268;8.764;2022-10-16T13:30:29;4.32;;;0.50;;
72791;SDS011;60907;53.268;8.764;2022-10-16T13:33:02;4.13;;;0.50;;
72791;SDS011;60907;53.268;8.764;2022-10-16T13:35:30;3.75;;;0.85;;
72791;SDS011;60907;53.268;8.764;2022-10-16T13:38:04;4.20;;;0.90;;
72791;SDS011;60907;53.268;8.764;2022-10-16T13:40:29;2.63;;;0.40;;
72791;SDS011;60907;53.268;8.764;2022-10-16T13:42:55;4.57;;;0.40;;
72791;SDS011;60907;53.268;8.764;2022-10-16T13:45:22;1.85;;;0.30;;
72791;SDS011;60907;53.268;8.764;2022-10-16T13:48:01;2.83;;;0.70;;
72791;SDS011;60907;53.268;8.764;2022-10-16T13:50:30;2.58;;;0.60;;
72791;SDS011;60907;53.268;8.764;2022-10-16T13:55:50;6.15;;;0.88;;
72791;SDS011;60907;53.268;8.764;2022-10-16T13:58:16;1.95;;;0.30;;
72791;SDS011;60907;53.268;8.764;2022-10-16T14:00:52;2.92;;;0.50;;
72791;SDS011;60907;53.268;8.764;2022-10-16T14:03:19;4.18;;;0.63;;
72791;SDS011;60907;53.268;8.764;2022-10-16T14:05:55;3.03;;;0.60;;
72791;SDS011;60907;53.268;8.764;2022-10-16T14:08:23;5.65;;;0.50;;
72791;SDS011;60907;53.268;8.764;2022-10-16T14:13:17;4.70;;;0.77;;
72791;SDS011;60907;53.268;8.764;2022-10-16T14:15:48;2.03;;;0.60;;
72791;SDS011;60907;53.268;8.764;2022-10-16T14:18:19;2.75;;;0.65;;
72791;SDS011;60907;53.268;8.764;2022-10-16T14:20:46;3.45;;;0.40;;
72791;SDS011;60907;53.268;8.764;2022-10-16T14:23:22;2.55;;;1.10;;
72791;SDS011;60907;53.268;8.764;2022-10-16T14:25:48;2.15;;;0.65;;
72791;SDS011;60907;53.268;8.764;2022-10-16T14:28:20;4.78;;;0.60;;
72791;SDS011;60907;53.268;8.764;2022-10-16T14:33:21;6.43;;;0.60;;
72791;SDS011;60907;53.268;8.764;2022-10-16T14:36:11;4.15;;;0.40;;
72791;SDS011;60907;53.268;8.764;2022-10-16T14:38:38;2.75;;;0.52;;
72791;SDS011;60907;53.268;8.764;2022-10-16T14:41:04;5.90;;;0.63;;
72791;SDS011;60907;53.268;8.764;2022-10-16T14:43:37;3.97;;;0.43;;
72791;SDS011;60907;53.268;8.764;2022-10-16T14:46:06;5.10;;;0.77;;
72791;SDS011;60907;53.268;8.764;2022-10-16T14:48:42;3.20;;;0.73;;
72791;SDS011;60907;53.268;8.764;2022-10-16T14:51:10;3.65;;;0.50;;
72791;SDS011;60907;53.268;8.764;2022-10-16T14:53:38;2.30;;;0.30;;
72791;SDS011;60907;53.268;8.764;2022-10-16T14:56:20;4.27;;;0.70;;
72791;SDS011;60907;53.268;8.764;2022-10-16T14:58:49;4.28;;;1.20;;
72791;SDS011;60907;53.268;8.764;2022-10-16T15:01:15;3.72;;;0.80;;
72791;SDS011;60907;53.268;8.764;2022-10-16T15:03:40;3.13;;;0.60;;
72791;SDS011;60907;53.268;8.764;2022-10-16T15:06:12;5.10;;;0.70;;
72791;SDS011;60907;53.268;8.764;2022-10-16T15:08:38;5.05;;;0.73;;
72791;SDS011;60907;53.268;8.764;2022-10-16T15:11:04;5.50;;;0.93;;
72791;SDS011;60907;53.268;8.764;2022-10-16T15:13:30;2.28;;;0.52;;
72791;SDS011;60907;53.268;8.764;2022-10-16T15:15:56;3.83;;;0.83;;
72791;SDS011;60907;53.268;8.764;2022-10-16T15:18:21;4.97;;;0.80;;
72791;SDS011;60907;53.268;8.764;2022-10-16T15:20:48;6.13;;;1.10;;
72791;SDS011;60907;53.268;8.764;2022-10-16T15:23:15;2.25;;;0.98;;
72791;SDS011;60907;53.268;8.764;2022-10-16T15:25:43;4.63;;;0.80;;
72791;SDS011;60907;53.268;8.764;2022-10-16T15:28:11;6.57;;;1.02;;
72791;SDS011;60907;53.268;8.764;2022-10-16T15:30:38;3.75;;;0.70;;
72791;SDS011;60907;53.268;8.764;2022-10-16T15:33:04;2.72;;;0.60;;
72791;SDS011;60907;53.268;8.764;2022-10-16T15:35:30;5.18;;;0.98;;
72791;SDS011;60907;53.268;8.764;2022-10-16T15:37:56;2.78;;;0.70;;
72791;SDS011;60907;53.268;8.764;2022-10-16T15:40:22;3.58;;;0.60;;
72791;SDS011;60907;53.268;8.764;2022-10-16T15:42:47;5.55;;;0.90;;
72791;SDS011;60907;53.268;8.764;2022-10-16T15:45:13;7.20;;;1.08;;
72791;SDS011;60907;53.268;8.764;2022-10-16T15:47:40;9.27;;;0.63;;
72791;SDS011;60907;53.268;8.764;2022-10-16T15:50:06;6.80;;;0.95;;
72791;SDS011;60907;53.268;8.764;2022-10-16T15:52:32;8.18;;;0.80;;
72791;SDS011;60907;53.268;8.764;2022-10-16T15:54:58;4.50;;;0.80;;
72791;SDS011;60907;53.268;8.764;2022-10-16T15:57:24;5.63;;;0.60;;
72791;SDS011;60907;53.268;8.764;2022-10-16T15:59:49;4.80;;;0.80;;
72791;SDS011;60907;53.268;8.764;2022-10-16T16:02:15;5.18;;;1.30;;
72791;SDS011;60907;53.268;8.764;2022-10-16T16:04:41;3.00;;;0.90;;
72791;SDS011;60907;53.268;8.764;2022-10-16T16:07:06;5.88;;;1.58;;
72791;SDS011;60907;53.268;8.764;2022-10-16T16:09:34;3.53;;;0.70;;
72791;SDS011;60907;53.268;8.764;2022-10-16T16:12:00;4.68;;;0.70;;
72791;SDS011;60907;53.268;8.764;2022-10-16T16:14:26;6.38;;;0.75;;
72791;SDS011;60907;53.268;8.764;2022-10-16T16:16:53;3.05;;;1.23;;
72791;SDS011;60907;53.268;8.764;2022-10-16T16:19:19;1.60;;;0.50;;
72791;SDS011;60907;53.268;8.764;2022-10-16T16:21:46;4.07;;;0.65;;
72791;SDS011;60907;53.268;8.764;2022-10-16T16:24:12;2.53;;;0.90;;
72791;SDS011;60907;53.268;8.764;2022-10-16T16:26:37;5.35;;;0.65;;
72791;SDS011;60907;53.268;8.764;2022-10-16T16:29:04;5.15;;;0.68;;
72791;SDS011;60907;53.268;8.764;2022-10-16T16:31:31;1.30;;;0.47;;
72791;SDS011;60907;53.268;8.764;2022-10-16T16:33:57;5.57;;;1.40;;
72791;SDS011;60907;53.268;8.764;2022-10-16T16:36:23;3.60;;;0.88;;
72791;SDS011;60907;53.268;8.764;2022-10-16T16:38:49;4.00;;;0.88;;